createdAt,value
2019-05-17T00:00:16.774Z,11.1
2019-05-17T00:03:16.898Z,11.1
2019-05-17T00:06:16.873Z,11.1
2019-05-17T00:09:17.549Z,11.1
2019-05-17T00:12:16.640Z,11.1
2019-05-17T00:15:17.018Z,11.1
2019-05-17T00:18:17.106Z,11.1
2019-05-17T00:21:16.995Z,11.0
2019-05-17T00:24:14.976Z,11.0
2019-05-17T00:27:17.207Z,11.0
2019-05-17T00:30:17.453Z,11.0
2019-05-17T00:33:16.958Z,10.9
2019-05-17T00:36:17.626Z,11.0
2019-05-17T00:39:16.699Z,11.0
2019-05-17T00:42:17.089Z,11.0
2019-05-17T00:45:17.313Z,11.0
2019-05-17T00:48:17.136Z,11.0
2019-05-17T00:51:16.715Z,11.0
2019-05-17T00:54:17.476Z,10.9
2019-05-17T00:57:16.608Z,10.9
2019-05-17T01:00:17.044Z,10.9
2019-05-17T01:03:16.264Z,10.9
2019-05-17T01:06:16.958Z,10.8
2019-05-17T01:09:17.046Z,10.8
2019-05-17T01:12:16.428Z,10.8
2019-05-17T01:15:16.751Z,10.7
2019-05-17T01:18:16.263Z,10.7
2019-05-17T01:21:16.859Z,10.6
2019-05-17T01:24:17.294Z,10.6
2019-05-17T01:27:17.242Z,10.6
2019-05-17T01:30:17.274Z,10.6
2019-05-17T01:33:17.142Z,10.6
2019-05-17T01:36:17.140Z,10.6
2019-05-17T01:39:18.726Z,10.5
2019-05-17T01:42:17.016Z,10.5
2019-05-17T01:45:16.694Z,10.5
2019-05-17T01:48:16.376Z,10.6
2019-05-17T01:51:16.983Z,10.5
2019-05-17T01:54:17.557Z,10.5
2019-05-17T01:57:16.890Z,10.5
2019-05-17T02:00:17.586Z,10.5
2019-05-17T02:03:17.190Z,10.5
2019-05-17T02:06:16.562Z,10.5
2019-05-17T02:09:32.314Z,10.5
2019-05-17T02:12:17.292Z,10.5
2019-05-17T02:15:16.434Z,10.5
2019-05-17T02:18:17.331Z,10.5
2019-05-17T02:21:16.857Z,10.5
2019-05-17T02:24:16.970Z,10.5
2019-05-17T02:27:15.736Z,10.5
2019-05-17T02:30:15.251Z,10.6
2019-05-17T02:33:23.629Z,10.6
2019-05-17T02:36:15.201Z,10.6
2019-05-17T02:39:15.588Z,10.6
2019-05-17T02:42:15.082Z,10.6
2019-05-17T02:45:15.447Z,10.6
2019-05-17T02:48:15.417Z,10.6
2019-05-17T02:51:15.433Z,10.6
2019-05-17T02:54:15.713Z,10.6
2019-05-17T02:57:15.262Z,10.6
2019-05-17T03:00:15.091Z,10.6
2019-05-17T03:03:15.476Z,10.5
2019-05-17T03:06:15.825Z,10.6
2019-05-17T03:09:15.224Z,10.6
2019-05-17T03:12:15.058Z,10.6
2019-05-17T03:15:15.327Z,10.5
2019-05-17T03:18:15.828Z,10.5
2019-05-17T03:21:14.994Z,10.4
2019-05-17T03:24:16.364Z,10.4
2019-05-17T03:27:15.090Z,10.4
2019-05-17T03:30:18.225Z,10.4
2019-05-17T03:33:16.719Z,10.4
2019-05-17T03:36:16.850Z,10.5
2019-05-17T03:39:15.230Z,10.5
2019-05-17T03:42:15.645Z,10.4
2019-05-17T03:45:15.488Z,10.4
2019-05-17T03:48:15.495Z,10.4
2019-05-17T03:51:15.422Z,10.4
2019-05-17T03:54:15.756Z,10.4
2019-05-17T03:57:15.873Z,10.4
2019-05-17T04:00:15.770Z,10.4
2019-05-17T04:03:15.327Z,10.4
2019-05-17T04:06:15.630Z,10.5
2019-05-17T04:09:15.231Z,10.5
2019-05-17T04:12:15.149Z,10.4
2019-05-17T04:15:23.666Z,10.5
2019-05-17T04:18:15.621Z,10.5
2019-05-17T04:21:14.895Z,10.4
2019-05-17T04:24:15.710Z,10.4
2019-05-17T04:27:15.290Z,10.4
2019-05-17T04:30:15.767Z,10.4
2019-05-17T04:33:15.928Z,10.3
2019-05-17T04:36:15.170Z,10.4
2019-05-17T04:39:15.647Z,10.4
2019-05-17T04:42:14.870Z,10.4
2019-05-17T04:45:15.650Z,10.4
2019-05-17T04:48:14.980Z,10.4
2019-05-17T04:51:15.597Z,10.4
2019-05-17T04:54:15.745Z,10.5
2019-05-17T04:57:15.875Z,10.5
2019-05-17T05:00:15.788Z,10.5
2019-05-17T05:03:15.778Z,10.6
2019-05-17T05:06:15.037Z,10.6
2019-05-17T05:09:15.273Z,10.6
2019-05-17T05:12:15.508Z,10.5
2019-05-17T05:15:14.977Z,10.4
2019-05-17T05:18:15.033Z,10.4
2019-05-17T05:21:15.049Z,10.4
2019-05-17T05:24:15.668Z,10.4
2019-05-17T05:27:15.835Z,10.4
2019-05-17T05:30:25.009Z,10.4
2019-05-17T05:33:15.504Z,10.4
2019-05-17T05:36:15.556Z,10.4
2019-05-17T05:39:15.173Z,10.3
2019-05-17T05:42:15.422Z,10.4
2019-05-17T05:45:15.677Z,10.4
2019-05-17T05:48:15.533Z,10.5
2019-05-17T05:51:14.976Z,10.5
2019-05-17T05:54:15.379Z,10.6
2019-05-17T05:57:15.276Z,10.6
2019-05-17T06:00:15.501Z,10.7
2019-05-17T06:03:15.354Z,10.7
2019-05-17T06:06:15.278Z,10.6
2019-05-17T06:09:15.569Z,10.6
2019-05-17T06:12:23.697Z,10.6
2019-05-17T06:15:14.957Z,10.5
2019-05-17T06:18:15.324Z,10.5
2019-05-17T06:21:15.228Z,10.5
2019-05-17T06:24:15.384Z,10.5
2019-05-17T06:27:15.220Z,10.6
2019-05-17T06:30:15.335Z,10.7
2019-05-17T06:33:27.019Z,10.7
2019-05-17T06:36:15.855Z,10.7
2019-05-17T06:39:15.186Z,10.7
2019-05-17T06:42:15.682Z,10.7
2019-05-17T06:45:14.958Z,10.7
2019-05-17T06:48:15.929Z,10.8
2019-05-17T06:51:15.571Z,10.9
2019-05-17T06:54:14.910Z,10.9
2019-05-17T06:57:15.150Z,10.9
2019-05-17T07:00:20.702Z,10.9
2019-05-17T07:03:15.732Z,10.9
2019-05-17T07:06:15.348Z,10.9
2019-05-17T07:09:15.478Z,10.8
2019-05-17T07:12:15.721Z,10.8
2019-05-17T07:15:15.328Z,10.9
2019-05-17T07:18:14.944Z,10.9
2019-05-17T07:21:15.643Z,11.0
2019-05-17T07:24:15.350Z,10.9
2019-05-17T07:27:15.552Z,11.0
2019-05-17T07:30:15.238Z,11.0
2019-05-17T07:33:15.016Z,11.1
2019-05-17T07:36:15.084Z,11.1
2019-05-17T07:39:15.075Z,11.2
2019-05-17T07:42:15.143Z,11.3
2019-05-17T07:45:15.615Z,11.3
2019-05-17T07:48:15.259Z,11.4
2019-05-17T07:51:15.086Z,11.4
2019-05-17T07:54:15.625Z,11.4
2019-05-17T07:57:15.883Z,11.4
2019-05-17T08:00:15.550Z,11.4
2019-05-17T08:03:15.114Z,11.4
2019-05-17T08:06:15.405Z,11.4
2019-05-17T08:09:15.152Z,11.5
2019-05-17T08:12:15.761Z,11.7
2019-05-17T08:15:15.144Z,11.8
2019-05-17T08:18:15.131Z,11.9
2019-05-17T08:21:15.492Z,12.0
2019-05-17T08:24:15.073Z,12.2
2019-05-17T08:27:15.944Z,12.3
2019-05-17T08:30:15.816Z,12.3
2019-05-17T08:33:15.085Z,12.5
2019-05-17T08:36:15.318Z,12.8
2019-05-17T08:39:15.562Z,13.1
2019-05-17T08:42:15.701Z,13.4
2019-05-17T08:45:15.863Z,13.8
2019-05-17T08:48:15.271Z,14.3
2019-05-17T08:51:15.326Z,15.0
2019-05-17T08:54:15.116Z,15.4
2019-05-17T08:57:15.862Z,15.8
2019-05-17T09:00:15.143Z,15.8
2019-05-17T09:03:15.261Z,15.9
2019-05-17T09:06:15.200Z,16.3
2019-05-17T09:09:15.509Z,16.9
2019-05-17T09:12:15.008Z,17.4
2019-05-17T09:15:15.623Z,17.8
2019-05-17T09:18:15.325Z,18.1
2019-05-17T09:21:15.112Z,19.1
2019-05-17T09:24:15.821Z,20.1
2019-05-17T09:27:15.594Z,20.1
2019-05-17T09:30:15.579Z,21.0
2019-05-17T09:33:14.971Z,21.7
2019-05-17T09:36:15.811Z,22.5
2019-05-17T09:39:14.925Z,22.9
2019-05-17T09:42:15.369Z,23.5
2019-05-17T09:45:14.946Z,23.7
2019-05-17T09:48:15.079Z,23.4
2019-05-17T09:51:15.396Z,23.3
2019-05-17T09:54:14.953Z,23.5
2019-05-17T09:57:15.875Z,23.9
2019-05-17T10:00:15.337Z,24.7
2019-05-17T10:03:15.308Z,25.2
2019-05-17T10:06:15.269Z,25.4
2019-05-17T10:09:15.892Z,25.3
2019-05-17T10:12:15.828Z,24.9
2019-05-17T10:15:15.714Z,25.0
2019-05-17T10:18:15.499Z,24.4
2019-05-17T10:21:15.497Z,23.8
2019-05-17T10:24:15.917Z,23.9
2019-05-17T10:27:15.853Z,24.1
2019-05-17T10:30:14.950Z,24.3
2019-05-17T10:33:15.889Z,24.2
2019-05-17T10:36:15.228Z,24.0
2019-05-17T10:39:15.345Z,23.6
2019-05-17T10:42:15.471Z,23.2
2019-05-17T10:45:20.398Z,23.3
2019-05-17T10:48:15.566Z,23.1
2019-05-17T10:51:15.845Z,23.1
2019-05-17T10:54:15.364Z,23.5
2019-05-17T10:57:15.808Z,23.8
2019-05-17T11:00:15.965Z,23.8
2019-05-17T11:03:14.968Z,23.6
2019-05-17T11:06:15.374Z,23.7
2019-05-17T11:09:15.782Z,23.5
2019-05-17T11:12:15.027Z,22.9
2019-05-17T11:15:15.822Z,22.8
2019-05-17T11:18:15.220Z,22.4
2019-05-17T11:21:15.082Z,21.8
2019-05-17T11:24:14.944Z,21.9
2019-05-17T11:27:15.735Z,22.1
2019-05-17T11:30:15.795Z,21.7
2019-05-17T11:33:15.083Z,21.2
2019-05-17T11:36:14.986Z,20.7
2019-05-17T11:39:14.933Z,20.6
2019-05-17T11:42:15.782Z,20.5
2019-05-17T11:45:27.102Z,20.5
2019-05-17T11:48:14.901Z,20.4
2019-05-17T11:51:15.389Z,20.5
2019-05-17T11:54:15.583Z,20.3
2019-05-17T11:57:15.426Z,20.4
2019-05-17T12:00:15.269Z,20.4
2019-05-17T12:03:15.631Z,20.9
2019-05-17T12:06:15.743Z,21.2
2019-05-17T12:09:15.076Z,21.4
2019-05-17T12:12:15.818Z,21.4
2019-05-17T12:15:15.151Z,21.6
2019-05-17T12:18:15.262Z,21.5
2019-05-17T12:21:15.210Z,21.2
2019-05-17T12:24:15.199Z,21.0
2019-05-17T12:27:15.220Z,20.8
2019-05-17T12:30:15.202Z,20.6
2019-05-17T12:33:15.051Z,20.6
2019-05-17T12:36:15.088Z,20.6
2019-05-17T12:39:20.690Z,20.7
2019-05-17T12:42:15.178Z,20.8
2019-05-17T12:45:15.098Z,21.0
2019-05-17T12:48:15.830Z,21.0
2019-05-17T12:51:15.104Z,21.0
2019-05-17T12:54:15.374Z,21.0
2019-05-17T12:57:15.083Z,21.2
2019-05-17T13:00:15.879Z,21.5
2019-05-17T13:03:14.970Z,21.7
2019-05-17T13:06:15.876Z,21.5
2019-05-17T13:09:15.121Z,21.2
2019-05-17T13:12:15.874Z,21.1
2019-05-17T13:15:15.855Z,21.0
2019-05-17T13:18:15.802Z,21.0
2019-05-17T13:21:15.053Z,21.0
2019-05-17T13:24:15.890Z,21.0
2019-05-17T13:27:15.814Z,21.1
2019-05-17T13:30:15.340Z,21.1
2019-05-17T13:33:15.217Z,21.0
2019-05-17T13:36:15.197Z,20.9
2019-05-17T13:39:15.877Z,20.9
2019-05-17T13:42:15.923Z,21.0
2019-05-17T13:45:14.932Z,21.0
2019-05-17T13:48:15.819Z,21.1
2019-05-17T13:51:15.793Z,21.0
2019-05-17T13:54:15.679Z,20.7
2019-05-17T13:57:15.418Z,20.6
2019-05-17T14:00:15.200Z,20.6
2019-05-17T14:03:15.854Z,20.6
2019-05-17T14:06:15.204Z,20.7
2019-05-17T14:09:14.965Z,20.8
2019-05-17T14:12:15.770Z,20.8
2019-05-17T14:15:14.952Z,20.9
2019-05-17T14:18:15.826Z,21.1
2019-05-17T14:21:15.631Z,21.3
2019-05-17T14:24:15.396Z,21.1
2019-05-17T14:27:15.170Z,20.7
2019-05-17T14:30:15.001Z,20.5
2019-05-17T14:33:15.747Z,20.4
2019-05-17T14:36:15.805Z,20.3
2019-05-17T14:39:15.658Z,20.4
2019-05-17T14:42:15.477Z,20.4
2019-05-17T14:45:15.295Z,20.4
2019-05-17T14:48:15.299Z,20.3
2019-05-17T14:51:15.086Z,20.1
2019-05-17T14:54:15.084Z,19.8
2019-05-17T14:57:15.612Z,19.5
2019-05-17T15:00:15.456Z,19.3
2019-05-17T15:03:15.400Z,19.2
2019-05-17T15:06:15.927Z,19.3
2019-05-17T15:09:15.634Z,19.3
2019-05-17T15:12:27.253Z,19.3
2019-05-17T15:15:25.804Z,19.4
2019-05-17T15:18:15.787Z,19.5
2019-05-17T15:21:15.463Z,19.6
2019-05-17T15:24:15.103Z,19.6
2019-05-17T15:27:15.779Z,19.6
2019-05-17T15:30:15.448Z,19.6
2019-05-17T15:33:15.148Z,19.6
2019-05-17T15:36:15.784Z,19.6
2019-05-17T15:39:15.626Z,19.6
2019-05-17T15:45:15.726Z,19.4
